EWG4TR EDDL-ELLX
Flight info
| Callsign | EWG4TR |
|---|---|
| Flight time | 0h 31m |
| Altitude | 14000 |
| Route | NVO2T NVO DCT PODAT M170 LNO |
| Aircraft | A21N/M-SDE2E3FGHIRWXY/LB1 |
Departure
| Time | 2026-05-04 12:41 |
|---|---|
| Airport | Düsseldorf Airport (EDDL) |
Arrival
| Time | 2026-05-04 13:12 |
|---|---|
| Airport | Luxembourg-Findel International Airport (ELLX) |
| Time | Latitude | Longitude | Altitude | Speed | Heading |
|---|---|---|---|---|---|
| 2026-05-04 12:17 | 51.28020 | 6.76424 | 133 ft | 0 kts | 209° |
| 2026-05-04 12:30 | 51.28020 | 6.76425 | 133 ft | 1 kts | 209° |
| 2026-05-04 12:30 | 51.28023 | 6.76426 | 133 ft | 0 kts | 209° |
| 2026-05-04 12:31 | 51.28025 | 6.76429 | 133 ft | 3 kts | 209° |
| 2026-05-04 12:31 | 51.28039 | 6.76444 | 133 ft | 3 kts | 232° |
| 2026-05-04 12:32 | 51.28044 | 6.76472 | 133 ft | 3 kts | 295° |
| 2026-05-04 12:32 | 51.28043 | 6.76475 | 133 ft | 0 kts | 294° |
| 2026-05-04 12:33 | 51.28043 | 6.76476 | 133 ft | 0 kts | 294° |
| 2026-05-04 12:34 | 51.28042 | 6.76476 | 133 ft | 0 kts | 294° |
| 2026-05-04 12:35 | 51.28061 | 6.76455 | 133 ft | 10 kts | 324° |
| 2026-05-04 12:35 | 51.28122 | 6.76417 | 133 ft | 10 kts | 1° |
| 2026-05-04 12:36 | 51.28191 | 6.76427 | 133 ft | 10 kts | 11° |
| 2026-05-04 12:36 | 51.28256 | 6.76479 | 133 ft | 11 kts | 48° |
| 2026-05-04 12:36 | 51.28308 | 6.76588 | 132 ft | 13 kts | 53° |
| 2026-05-04 12:36 | 51.28375 | 6.76697 | 126 ft | 13 kts | 8° |
| 2026-05-04 12:37 | 51.28447 | 6.76695 | 127 ft | 11 kts | 36° |
| 2026-05-04 12:37 | 51.28497 | 6.76796 | 126 ft | 12 kts | 53° |
| 2026-05-04 12:37 | 51.28552 | 6.76911 | 132 ft | 18 kts | 52° |
| 2026-05-04 12:37 | 51.28649 | 6.77115 | 133 ft | 26 kts | 53° |
| 2026-05-04 12:38 | 51.28762 | 6.77349 | 133 ft | 27 kts | 53° |
| 2026-05-04 12:38 | 51.28877 | 6.77590 | 133 ft | 27 kts | 54° |
| 2026-05-04 12:38 | 51.28992 | 6.77831 | 133 ft | 28 kts | 52° |
| 2026-05-04 12:38 | 51.29110 | 6.78080 | 136 ft | 27 kts | 52° |
| 2026-05-04 12:39 | 51.29228 | 6.78294 | 143 ft | 24 kts | 33° |
| 2026-05-04 12:39 | 51.29357 | 6.78440 | 150 ft | 21 kts | 34° |
| 2026-05-04 12:39 | 51.29393 | 6.78466 | 152 ft | 0 kts | 9° |
| 2026-05-04 12:39 | 51.29395 | 6.78467 | 152 ft | 4 kts | 9° |
| 2026-05-04 12:40 | 51.29485 | 6.78417 | 153 ft | 7 kts | 291° |
| 2026-05-04 12:40 | 51.29480 | 6.78392 | 152 ft | 1 kts | 236° |
| 2026-05-04 12:40 | 51.29406 | 6.78235 | 149 ft | 48 kts | 232° |
| 2026-05-04 12:40 | 51.29074 | 6.77534 | 134 ft | 112 kts | 232° |
| 2026-05-04 12:41 | 51.28481 | 6.76297 | 243 ft | 156 kts | 232° |
| 2026-05-04 12:41 | 51.27797 | 6.74912 | 801 ft | 160 kts | 231° |
| 2026-05-04 12:41 | 51.27100 | 6.73517 | 1463 ft | 162 kts | 231° |
| 2026-05-04 12:41 | 51.26382 | 6.72081 | 2030 ft | 174 kts | 231° |
| 2026-05-04 12:42 | 51.25588 | 6.70438 | 2542 ft | 197 kts | 231° |
| 2026-05-04 12:42 | 51.24703 | 6.68630 | 3151 ft | 215 kts | 230° |
| 2026-05-04 12:42 | 51.23744 | 6.66680 | 3693 ft | 237 kts | 231° |
| 2026-05-04 12:42 | 51.22622 | 6.64615 | 4492 ft | 247 kts | 215° |
| 2026-05-04 12:43 | 51.21043 | 6.63646 | 5407 ft | 253 kts | 187° |
| 2026-05-04 12:43 | 51.19240 | 6.63680 | 6312 ft | 261 kts | 174° |
| 2026-05-04 12:43 | 51.17418 | 6.64019 | 7176 ft | 266 kts | 174° |
| 2026-05-04 12:43 | 51.15590 | 6.64354 | 8066 ft | 270 kts | 175° |
| 2026-05-04 12:44 | 51.13701 | 6.64677 | 8947 ft | 275 kts | 176° |
| 2026-05-04 12:44 | 51.11775 | 6.64789 | 9877 ft | 279 kts | 181° |
| 2026-05-04 12:44 | 51.09803 | 6.64745 | 10542 ft | 291 kts | 182° |
| 2026-05-04 12:44 | 51.07700 | 6.64662 | 10902 ft | 313 kts | 182° |
| 2026-05-04 12:45 | 51.05448 | 6.64567 | 11264 ft | 333 kts | 182° |
| 2026-05-04 12:45 | 51.03085 | 6.64470 | 11894 ft | 343 kts | 182° |
| 2026-05-04 12:45 | 51.00681 | 6.64374 | 12721 ft | 348 kts | 182° |
| 2026-05-04 12:45 | 50.98248 | 6.64277 | 13497 ft | 351 kts | 182° |
| 2026-05-04 12:46 | 50.95799 | 6.64181 | 13897 ft | 352 kts | 182° |
| 2026-05-04 12:46 | 50.93344 | 6.64084 | 13995 ft | 354 kts | 182° |
| 2026-05-04 12:46 | 50.90877 | 6.63984 | 13989 ft | 355 kts | 182° |
| 2026-05-04 12:46 | 50.88403 | 6.63884 | 13986 ft | 356 kts | 182° |
| 2026-05-04 12:47 | 50.85946 | 6.63468 | 13990 ft | 356 kts | 193° |
| 2026-05-04 12:47 | 50.83640 | 6.62054 | 13992 ft | 356 kts | 210° |
| 2026-05-04 12:47 | 50.81727 | 6.59577 | 13993 ft | 358 kts | 227° |
| 2026-05-04 12:47 | 50.80349 | 6.56290 | 13999 ft | 361 kts | 240° |
| 2026-05-04 12:48 | 50.79258 | 6.52695 | 13983 ft | 365 kts | 245° |
| 2026-05-04 12:48 | 50.78309 | 6.48967 | 13965 ft | 366 kts | 248° |
| 2026-05-04 12:48 | 50.77419 | 6.45188 | 13982 ft | 367 kts | 249° |
| 2026-05-04 12:48 | 50.76552 | 6.41459 | 13984 ft | 367 kts | 248° |
| 2026-05-04 12:49 | 50.75657 | 6.37681 | 13976 ft | 367 kts | 248° |
| 2026-05-04 12:49 | 50.74742 | 6.33921 | 13980 ft | 366 kts | 248° |
| 2026-05-04 12:49 | 50.73810 | 6.30174 | 13978 ft | 366 kts | 247° |
| 2026-05-04 12:49 | 50.72866 | 6.26437 | 13968 ft | 366 kts | 247° |
| 2026-05-04 12:50 | 50.71912 | 6.22699 | 13982 ft | 366 kts | 247° |
| 2026-05-04 12:50 | 50.70958 | 6.18971 | 13981 ft | 367 kts | 246° |
| 2026-05-04 12:50 | 50.70001 | 6.15240 | 13990 ft | 367 kts | 246° |
| 2026-05-04 12:50 | 50.69043 | 6.11511 | 13989 ft | 367 kts | 246° |
| 2026-05-04 12:51 | 50.68083 | 6.07775 | 13972 ft | 367 kts | 246° |
| 2026-05-04 12:51 | 50.67125 | 6.04049 | 13983 ft | 367 kts | 247° |
| 2026-05-04 12:51 | 50.66160 | 6.00343 | 13849 ft | 363 kts | 245° |
| 2026-05-04 12:51 | 50.64791 | 5.97065 | 13568 ft | 358 kts | 225° |
| 2026-05-04 12:52 | 50.62792 | 5.94782 | 13250 ft | 355 kts | 204° |
| 2026-05-04 12:52 | 50.60433 | 5.93756 | 12935 ft | 353 kts | 187° |
| 2026-05-04 12:52 | 50.57984 | 5.93462 | 12620 ft | 353 kts | 183° |
| 2026-05-04 12:52 | 50.55541 | 5.93284 | 12316 ft | 351 kts | 183° |
| 2026-05-04 12:53 | 50.53130 | 5.93117 | 12059 ft | 350 kts | 182° |
| 2026-05-04 12:53 | 50.50695 | 5.92951 | 11806 ft | 349 kts | 182° |
| 2026-05-04 12:53 | 50.48276 | 5.92780 | 11557 ft | 348 kts | 182° |
| 2026-05-04 12:53 | 50.45872 | 5.92591 | 11306 ft | 345 kts | 182° |
| 2026-05-04 12:54 | 50.43478 | 5.92399 | 11067 ft | 344 kts | 183° |
| 2026-05-04 12:54 | 50.41078 | 5.92208 | 10992 ft | 344 kts | 182° |
| 2026-05-04 12:54 | 50.38689 | 5.92016 | 10989 ft | 344 kts | 183° |
| 2026-05-04 12:54 | 50.36295 | 5.91825 | 10988 ft | 344 kts | 182° |
| 2026-05-04 12:55 | 50.33909 | 5.91634 | 10986 ft | 343 kts | 183° |
| 2026-05-04 12:55 | 50.31519 | 5.91442 | 10987 ft | 343 kts | 182° |
| 2026-05-04 12:55 | 50.29135 | 5.91248 | 10989 ft | 342 kts | 182° |
| 2026-05-04 12:55 | 50.26753 | 5.91084 | 10994 ft | 343 kts | 180° |
| 2026-05-04 12:56 | 50.24379 | 5.91361 | 10860 ft | 342 kts | 169° |
| 2026-05-04 12:56 | 50.22054 | 5.92142 | 10467 ft | 342 kts | 166° |
| 2026-05-04 12:56 | 50.19770 | 5.93010 | 10054 ft | 333 kts | 166° |
| 2026-05-04 12:56 | 50.17547 | 5.93859 | 9621 ft | 325 kts | 166° |
| 2026-05-04 12:57 | 50.15378 | 5.94677 | 9167 ft | 315 kts | 165° |
| 2026-05-04 12:57 | 50.13332 | 5.95441 | 8713 ft | 297 kts | 166° |
| 2026-05-04 12:57 | 50.11382 | 5.96196 | 8262 ft | 281 kts | 166° |
| 2026-05-04 12:57 | 50.09533 | 5.96952 | 7823 ft | 268 kts | 166° |
| 2026-05-04 12:58 | 50.07764 | 5.97687 | 7386 ft | 258 kts | 166° |
| 2026-05-04 12:58 | 50.06064 | 5.98398 | 6985 ft | 248 kts | 166° |
| 2026-05-04 12:58 | 50.04421 | 5.99087 | 6765 ft | 242 kts | 166° |
| 2026-05-04 12:58 | 50.02835 | 5.99768 | 6951 ft | 232 kts | 166° |
| 2026-05-04 12:59 | 50.01302 | 6.00462 | 6990 ft | 228 kts | 166° |
| 2026-05-04 12:59 | 49.99783 | 6.01154 | 6994 ft | 227 kts | 166° |
| 2026-05-04 12:59 | 49.98263 | 6.01847 | 6991 ft | 228 kts | 166° |
| 2026-05-04 12:59 | 49.96743 | 6.02532 | 6999 ft | 228 kts | 166° |
| 2026-05-04 13:00 | 49.95219 | 6.03217 | 7003 ft | 228 kts | 166° |
| 2026-05-04 13:00 | 49.93715 | 6.03893 | 6996 ft | 228 kts | 165° |
| 2026-05-04 13:00 | 49.92235 | 6.04763 | 6996 ft | 231 kts | 149° |
| 2026-05-04 13:00 | 49.91170 | 6.06635 | 6980 ft | 239 kts | 120° |
| 2026-05-04 13:01 | 49.90684 | 6.09115 | 6726 ft | 242 kts | 105° |
| 2026-05-04 13:01 | 49.90404 | 6.11696 | 6372 ft | 243 kts | 103° |
| 2026-05-04 13:01 | 49.90156 | 6.14284 | 5988 ft | 242 kts | 103° |
| 2026-05-04 13:01 | 49.89909 | 6.16875 | 5603 ft | 243 kts | 103° |
| 2026-05-04 13:02 | 49.89659 | 6.19472 | 5224 ft | 243 kts | 103° |
| 2026-05-04 13:02 | 49.89407 | 6.22039 | 4841 ft | 238 kts | 103° |
| 2026-05-04 13:02 | 49.89165 | 6.24570 | 4425 ft | 237 kts | 102° |
| 2026-05-04 13:02 | 49.88994 | 6.26276 | 4205 ft | 237 kts | 102° |
| 2026-05-04 13:03 | 49.88649 | 6.29605 | 3982 ft | 235 kts | 103° |
| 2026-05-04 13:03 | 49.88382 | 6.32100 | 3976 ft | 234 kts | 103° |
| 2026-05-04 13:03 | 49.88118 | 6.34583 | 3976 ft | 234 kts | 103° |
| 2026-05-04 13:03 | 49.87924 | 6.36227 | 3944 ft | 233 kts | 108° |
| 2026-05-04 13:04 | 49.87148 | 6.38359 | 3778 ft | 223 kts | 139° |
| 2026-05-04 13:04 | 49.85953 | 6.39774 | 3545 ft | 212 kts | 151° |
| 2026-05-04 13:04 | 49.84325 | 6.41288 | 3130 ft | 200 kts | 153° |
| 2026-05-04 13:04 | 49.83524 | 6.41998 | 2973 ft | 191 kts | 153° |
| 2026-05-04 13:05 | 49.82405 | 6.42981 | 2962 ft | 182 kts | 153° |
| 2026-05-04 13:05 | 49.81300 | 6.43937 | 2967 ft | 182 kts | 153° |
| 2026-05-04 13:05 | 49.80197 | 6.44891 | 2980 ft | 182 kts | 153° |
| 2026-05-04 13:05 | 49.79110 | 6.45831 | 2970 ft | 181 kts | 153° |
| 2026-05-04 13:06 | 49.78010 | 6.46777 | 2974 ft | 181 kts | 153° |
| 2026-05-04 13:06 | 49.76917 | 6.47733 | 2973 ft | 176 kts | 153° |
| 2026-05-04 13:06 | 49.75900 | 6.48631 | 2964 ft | 163 kts | 153° |
| 2026-05-04 13:06 | 49.74922 | 6.49498 | 2970 ft | 161 kts | 153° |
| 2026-05-04 13:07 | 49.73948 | 6.50360 | 2981 ft | 161 kts | 153° |
| 2026-05-04 13:07 | 49.72928 | 6.51048 | 2970 ft | 159 kts | 176° |
| 2026-05-04 13:07 | 49.71906 | 6.50582 | 2971 ft | 157 kts | 221° |
| 2026-05-04 13:07 | 49.71409 | 6.49107 | 2987 ft | 160 kts | 258° |
| 2026-05-04 13:08 | 49.71213 | 6.47405 | 2989 ft | 161 kts | 253° |
| 2026-05-04 13:08 | 49.70929 | 6.45728 | 2987 ft | 161 kts | 251° |
| 2026-05-04 13:08 | 49.70581 | 6.44092 | 2993 ft | 160 kts | 245° |
| 2026-05-04 13:08 | 49.70148 | 6.42533 | 2996 ft | 156 kts | 243° |
| 2026-05-04 13:09 | 49.69738 | 6.40985 | 2986 ft | 157 kts | 249° |
| 2026-05-04 13:09 | 49.69339 | 6.39416 | 2991 ft | 160 kts | 240° |
| 2026-05-04 13:09 | 49.68809 | 6.37927 | 2984 ft | 158 kts | 238° |
| 2026-05-04 13:09 | 49.68289 | 6.36449 | 2998 ft | 156 kts | 239° |
| 2026-05-04 13:10 | 49.67741 | 6.34916 | 2941 ft | 155 kts | 237° |
| 2026-05-04 13:10 | 49.67238 | 6.33556 | 2740 ft | 150 kts | 237° |
| 2026-05-04 13:10 | 49.66745 | 6.32212 | 2528 ft | 137 kts | 237° |
| 2026-05-04 13:10 | 49.66281 | 6.30955 | 2389 ft | 135 kts | 235° |
| 2026-05-04 13:11 | 49.65809 | 6.29684 | 2187 ft | 137 kts | 236° |
| 2026-05-04 13:11 | 49.65336 | 6.28405 | 1987 ft | 137 kts | 237° |
| 2026-05-04 13:11 | 49.64865 | 6.27136 | 1798 ft | 136 kts | 238° |
| 2026-05-04 13:11 | 49.64396 | 6.25867 | 1607 ft | 137 kts | 238° |
| 2026-05-04 13:12 | 49.63920 | 6.24590 | 1419 ft | 138 kts | 238° |
| 2026-05-04 13:12 | 49.63446 | 6.23320 | 1254 ft | 137 kts | 239° |
| 2026-05-04 13:12 | 49.63029 | 6.22188 | 1218 ft | 98 kts | 240° |
| 2026-05-04 13:12 | 49.62780 | 6.21522 | 1226 ft | 46 kts | 239° |
| 2026-05-04 13:13 | 49.62687 | 6.21258 | 1247 ft | 34 kts | 245° |
| 2026-05-04 13:13 | 49.62645 | 6.20894 | 1251 ft | 26 kts | 272° |
| 2026-05-04 13:13 | 49.62650 | 6.20823 | 1250 ft | 0 kts | 284° |
| 2026-05-04 13:13 | 49.62650 | 6.20821 | 1250 ft | 0 kts | 284° |
| 2026-05-04 13:14 | 49.62655 | 6.20804 | 1248 ft | 3 kts | 298° |
| 2026-05-04 13:14 | 49.62671 | 6.20770 | 1253 ft | 4 kts | 310° |
| 2026-05-04 13:14 | 49.62731 | 6.20738 | 1241 ft | 12 kts | 12° |
| 2026-05-04 13:14 | 49.62813 | 6.20806 | 1246 ft | 17 kts | 53° |
| 2026-05-04 13:15 | 49.62881 | 6.21014 | 1247 ft | 25 kts | 64° |
| 2026-05-04 13:15 | 49.62957 | 6.21259 | 1241 ft | 26 kts | 64° |
| 2026-05-04 13:15 | 49.63040 | 6.21524 | 1230 ft | 29 kts | 64° |
| 2026-05-04 13:15 | 49.63118 | 6.21779 | 1229 ft | 26 kts | 64° |
| 2026-05-04 13:16 | 49.63195 | 6.22028 | 1231 ft | 25 kts | 65° |
| 2026-05-04 13:16 | 49.63268 | 6.22119 | 1231 ft | 10 kts | 340° |
| 2026-05-04 13:16 | 49.63332 | 6.22026 | 1233 ft | 13 kts | 313° |
| 2026-05-04 13:16 | 49.63352 | 6.21903 | 1233 ft | 13 kts | 253° |
| 2026-05-04 13:17 | 49.63317 | 6.21779 | 1233 ft | 13 kts | 240° |
| 2026-05-04 13:17 | 49.63273 | 6.21654 | 1233 ft | 13 kts | 251° |
| 2026-05-04 13:17 | 49.63311 | 6.21575 | 1233 ft | 10 kts | 330° |
| 2026-05-04 13:17 | 49.63327 | 6.21560 | 1233 ft | 0 kts | 330° |
| 2026-05-04 13:21 | 49.63327 | 6.21561 | 1233 ft | 0 kts | 330° |